createdAt,value
2019-06-08T00:00:36.524Z,10.80
2019-06-08T00:01:36.622Z,10.50
2019-06-08T00:02:36.614Z,10.70
2019-06-08T00:03:36.659Z,10.60
2019-06-08T00:04:36.731Z,10.70
2019-06-08T00:05:36.741Z,10.50
2019-06-08T00:06:36.802Z,10.20
2019-06-08T00:07:36.875Z,10.70
2019-06-08T00:08:36.874Z,10.60
2019-06-08T00:09:36.977Z,10.60
2019-06-08T00:10:36.966Z,11.00
2019-06-08T00:11:37.042Z,10.10
2019-06-08T00:12:37.031Z,10.30
2019-06-08T00:13:37.142Z,10.40
2019-06-08T00:14:37.133Z,10.60
2019-06-08T00:15:37.163Z,10.40
2019-06-08T00:16:37.221Z,10.50
2019-06-08T00:17:39.185Z,10.40
2019-06-08T00:18:37.340Z,10.40
2019-06-08T00:19:37.345Z,10.60
2019-06-08T00:20:37.377Z,10.50
2019-06-08T00:21:37.459Z,10.90
2019-06-08T00:22:37.467Z,10.80
2019-06-08T00:23:37.522Z,10.80
2019-06-08T00:24:37.544Z,11.30
2019-06-08T00:25:37.598Z,11.00
2019-06-08T00:26:37.647Z,11.50
2019-06-08T00:27:37.727Z,11.10
2019-06-08T00:28:37.718Z,10.10
2019-06-08T00:29:37.771Z,11.30
2019-06-08T00:30:39.158Z,11.20
2019-06-08T00:31:37.890Z,11.20
2019-06-08T00:32:37.897Z,11.10
2019-06-08T00:33:37.930Z,11.00
2019-06-08T00:34:37.953Z,10.90
2019-06-08T00:35:38.021Z,11.20
2019-06-08T00:36:38.062Z,11.30
2019-06-08T00:37:38.093Z,11.00
2019-06-08T00:38:38.146Z,11.00
2019-06-08T00:39:38.165Z,11.50
2019-06-08T00:40:38.224Z,12.00
2019-06-08T00:41:38.281Z,12.00
2019-06-08T00:42:38.330Z,11.50
2019-06-08T00:43:38.349Z,11.50
2019-06-08T00:44:38.383Z,11.40
2019-06-08T00:45:38.427Z,11.50
2019-06-08T00:46:38.482Z,11.30
2019-06-08T00:47:47.398Z,10.90
2019-06-08T00:48:38.604Z,11.40
2019-06-08T00:49:38.612Z,11.30
2019-06-08T00:50:38.625Z,11.40
2019-06-08T00:51:38.696Z,11.70
2019-06-08T00:52:38.724Z,12.20
2019-06-08T00:53:38.781Z,11.60
2019-06-08T00:54:38.821Z,11.70
2019-06-08T00:55:38.863Z,11.70
2019-06-08T00:56:38.905Z,11.60
2019-06-08T00:57:38.955Z,11.90
2019-06-08T00:58:38.976Z,11.90
2019-06-08T00:59:39.013Z,11.90
2019-06-08T01:00:39.082Z,11.50
2019-06-08T01:01:39.128Z,11.90
2019-06-08T01:02:39.127Z,12.10
2019-06-08T01:03:39.203Z,11.80
2019-06-08T01:04:39.265Z,12.40
2019-06-08T01:05:39.291Z,12.50
2019-06-08T01:06:39.376Z,12.10
2019-06-08T01:07:39.354Z,12.30
2019-06-08T01:08:39.500Z,12.10
2019-06-08T01:09:39.451Z,11.90
2019-06-08T01:10:39.557Z,12.40
2019-06-08T01:11:39.580Z,12.10
2019-06-08T01:12:39.599Z,12.60
2019-06-08T01:13:39.678Z,11.90
2019-06-08T01:14:39.713Z,12.70
2019-06-08T01:15:39.741Z,12.00
2019-06-08T01:16:39.745Z,12.20
2019-06-08T01:17:39.815Z,12.20
2019-06-08T01:18:39.829Z,12.00
2019-06-08T01:19:39.956Z,12.30
2019-06-08T01:20:39.903Z,11.90
2019-06-08T01:21:40.006Z,12.80
2019-06-08T01:22:39.971Z,13.00
2019-06-08T01:23:40.093Z,13.30
2019-06-08T01:24:40.085Z,13.30
2019-06-08T01:25:40.101Z,12.50
2019-06-08T01:26:40.165Z,12.60
2019-06-08T01:27:40.224Z,13.30
2019-06-08T01:28:40.236Z,12.70
2019-06-08T01:29:40.339Z,13.40
2019-06-08T01:30:40.406Z,13.20
2019-06-08T01:31:40.361Z,13.20
2019-06-08T01:32:40.450Z,13.50
2019-06-08T01:33:40.503Z,13.00
2019-06-08T01:34:40.506Z,12.70
2019-06-08T01:35:40.518Z,13.20
2019-06-08T01:36:40.586Z,13.40
2019-06-08T01:37:40.677Z,12.90
2019-06-08T01:38:40.712Z,13.50
2019-06-08T01:39:40.694Z,13.50
2019-06-08T01:40:40.786Z,13.40
2019-06-08T01:41:40.831Z,13.30
2019-06-08T01:42:40.942Z,13.70
2019-06-08T01:43:40.871Z,13.70
2019-06-08T01:44:40.916Z,13.70
2019-06-08T01:45:40.957Z,13.70
2019-06-08T01:46:40.988Z,14.10
2019-06-08T01:47:41.019Z,14.80
2019-06-08T01:48:41.080Z,14.80
2019-06-08T01:49:41.150Z,14.90
2019-06-08T01:50:41.194Z,14.80
2019-06-08T01:51:41.203Z,15.40
2019-06-08T01:52:41.239Z,15.40
2019-06-08T01:53:41.291Z,15.50
2019-06-08T01:54:41.320Z,14.80
2019-06-08T01:55:41.379Z,15.00
2019-06-08T01:56:41.453Z,14.90
2019-06-08T01:57:41.448Z,14.50
2019-06-08T01:58:41.489Z,14.90
2019-06-08T01:59:41.524Z,14.60
2019-06-08T02:00:41.990Z,14.20
2019-06-08T02:01:41.662Z,15.00
2019-06-08T02:02:41.688Z,21.10
2019-06-08T02:03:41.701Z,22.60
2019-06-08T02:04:41.740Z,22.90
2019-06-08T02:05:41.777Z,22.30
2019-06-08T02:06:41.817Z,21.70
2019-06-08T02:07:41.847Z,20.40
2019-06-08T02:08:41.902Z,36.90
2019-06-08T02:09:41.952Z,38.60
2019-06-08T02:10:42.000Z,25.90
2019-06-08T02:11:42.079Z,22.80
2019-06-08T02:12:42.072Z,22.70
2019-06-08T02:13:42.117Z,23.50
2019-06-08T02:14:42.170Z,25.90
2019-06-08T02:15:42.213Z,27.10
2019-06-08T02:16:42.245Z,25.80
2019-06-08T02:17:42.286Z,25.40
2019-06-08T02:18:50.260Z,22.80
2019-06-08T02:19:42.355Z,22.60
2019-06-08T02:20:42.416Z,23.90
2019-06-08T02:21:42.467Z,23.90
2019-06-08T02:22:42.682Z,24.80
2019-06-08T02:23:42.539Z,24.70
2019-06-08T02:24:42.585Z,26.40
2019-06-08T02:25:42.632Z,26.30
2019-06-08T02:26:42.652Z,27.90
2019-06-08T02:27:42.704Z,27.60
2019-06-08T02:28:42.733Z,27.40
2019-06-08T02:29:42.766Z,27.60
2019-06-08T02:30:42.828Z,27.40
2019-06-08T02:31:42.872Z,27.80
2019-06-08T02:32:42.917Z,26.70
2019-06-08T02:33:42.938Z,27.00
2019-06-08T02:34:42.994Z,27.50
2019-06-08T02:35:43.047Z,26.80
2019-06-08T02:36:43.050Z,29.10
2019-06-08T02:37:43.112Z,29.70
2019-06-08T02:38:43.157Z,29.10
2019-06-08T02:39:43.180Z,29.50
2019-06-08T02:40:43.224Z,29.90
2019-06-08T02:41:43.278Z,30.00
2019-06-08T02:42:43.374Z,30.10
2019-06-08T02:43:43.371Z,30.30
2019-06-08T02:44:43.407Z,30.30
2019-06-08T02:45:43.429Z,29.50
2019-06-08T02:46:43.471Z,29.90
2019-06-08T02:47:43.530Z,26.50
2019-06-08T02:49:02.248Z,26.80
2019-06-08T02:49:43.649Z,26.20
2019-06-08T02:50:43.662Z,26.80
2019-06-08T02:51:43.701Z,26.80
2019-06-08T02:52:43.725Z,27.50
2019-06-08T02:53:43.784Z,27.90
2019-06-08T02:54:43.825Z,27.50
2019-06-08T02:55:43.890Z,26.70
2019-06-08T02:56:43.900Z,25.60
2019-06-08T02:57:43.944Z,26.40
2019-06-08T02:58:43.988Z,26.40
2019-06-08T02:59:44.024Z,26.50
2019-06-08T03:00:44.066Z,26.00
2019-06-08T03:01:44.120Z,26.30
2019-06-08T03:02:44.165Z,25.80
2019-06-08T03:03:44.199Z,26.20
2019-06-08T03:04:44.222Z,26.40
2019-06-08T03:05:44.271Z,27.30
2019-06-08T03:06:44.343Z,27.40
2019-06-08T03:07:44.382Z,27.90
2019-06-08T03:08:44.421Z,28.10
2019-06-08T03:09:44.454Z,29.30
2019-06-08T03:10:44.544Z,29.30
2019-06-08T03:11:44.530Z,28.80
2019-06-08T03:12:44.557Z,29.20
2019-06-08T03:13:44.636Z,28.60
2019-06-08T03:14:44.710Z,28.20
2019-06-08T03:15:44.679Z,28.90
2019-06-08T03:16:44.771Z,28.30
2019-06-08T03:17:44.770Z,28.10
2019-06-08T03:18:44.818Z,27.80
2019-06-08T03:19:44.855Z,27.20
2019-06-08T03:20:44.903Z,27.10
2019-06-08T03:21:44.936Z,27.80
2019-06-08T03:22:44.973Z,26.60
2019-06-08T03:23:45.017Z,27.30
2019-06-08T03:24:45.095Z,26.80
2019-06-08T03:25:52.599Z,26.50
2019-06-08T03:26:45.145Z,26.90
2019-06-08T03:27:45.198Z,26.10
2019-06-08T03:28:45.223Z,25.70
2019-06-08T03:29:45.233Z,26.40
2019-06-08T03:30:53.281Z,25.30
2019-06-08T03:31:54.568Z,25.80
2019-06-08T03:32:54.688Z,25.50
2019-06-08T03:33:53.743Z,25.40
2019-06-08T03:34:54.279Z,25.60
2019-06-08T03:35:55.939Z,26.20
2019-06-08T03:36:54.877Z,26.00
2019-06-08T03:37:45.588Z,26.20
2019-06-08T03:38:45.625Z,25.60
2019-06-08T03:39:45.732Z,25.90
2019-06-08T03:40:45.718Z,25.40
2019-06-08T03:41:45.799Z,25.40
2019-06-08T03:42:45.805Z,25.20
2019-06-08T03:43:45.831Z,25.00
2019-06-08T03:44:45.876Z,26.10
2019-06-08T03:45:45.893Z,26.00
2019-06-08T03:46:46.098Z,26.10
2019-06-08T03:47:46.020Z,26.10
2019-06-08T03:48:46.551Z,25.60
2019-06-08T03:49:54.915Z,26.30
2019-06-08T03:50:46.343Z,26.00
2019-06-08T03:51:48.713Z,26.70
2019-06-08T03:52:46.383Z,27.40
2019-06-08T03:53:47.335Z,27.70
2019-06-08T03:54:47.075Z,27.20
2019-06-08T03:55:47.269Z,26.70
2019-06-08T03:56:46.353Z,26.40
2019-06-08T03:57:46.415Z,26.70
2019-06-08T03:58:47.961Z,27.50
2019-06-08T03:59:47.853Z,27.70
2019-06-08T04:00:47.115Z,27.30
2019-06-08T04:01:46.573Z,28.40
2019-06-08T04:02:46.831Z,27.20
2019-06-08T04:03:46.635Z,27.30
2019-06-08T04:04:46.689Z,28.80
2019-06-08T04:05:46.753Z,28.30
2019-06-08T04:06:46.844Z,28.10
2019-06-08T04:07:46.815Z,28.60
2019-06-08T04:08:47.637Z,28.60
2019-06-08T04:09:46.903Z,27.50
2019-06-08T04:10:47.065Z,27.70
2019-06-08T04:11:46.983Z,28.20
2019-06-08T04:12:47.000Z,27.00
2019-06-08T04:13:47.432Z,26.70
2019-06-08T04:14:47.115Z,27.10
2019-06-08T04:15:47.225Z,26.90
2019-06-08T04:16:47.202Z,26.50
2019-06-08T04:17:47.231Z,27.00
2019-06-08T04:18:47.282Z,27.80
2019-06-08T04:20:09.042Z,27.20
2019-06-08T04:20:48.861Z,27.40
2019-06-08T04:21:47.394Z,27.80
2019-06-08T04:22:47.467Z,27.60
2019-06-08T04:23:47.477Z,28.80
2019-06-08T04:24:47.521Z,28.40
2019-06-08T04:25:47.849Z,30.40
2019-06-08T04:26:47.645Z,32.30
2019-06-08T04:27:47.639Z,35.40
2019-06-08T04:28:49.581Z,34.50
2019-06-08T04:29:47.728Z,33.20
2019-06-08T04:30:49.854Z,33.30
2019-06-08T04:31:47.802Z,38.00
2019-06-08T04:32:49.664Z,38.70
2019-06-08T04:33:47.889Z,38.00
2019-06-08T04:34:49.807Z,38.10
2019-06-08T04:35:47.948Z,40.40
2019-06-08T04:36:49.970Z,38.30
2019-06-08T04:37:48.031Z,37.00
2019-06-08T04:38:50.126Z,37.30
2019-06-08T04:39:48.104Z,38.60
2019-06-08T04:40:50.009Z,39.30
2019-06-08T04:41:48.209Z,38.80
2019-06-08T04:42:50.790Z,40.10
2019-06-08T04:43:49.899Z,39.70
2019-06-08T04:44:49.383Z,40.10
2019-06-08T04:45:49.882Z,39.20
2019-06-08T04:46:49.521Z,38.20
2019-06-08T04:47:50.135Z,39.00
2019-06-08T04:48:50.016Z,40.90
2019-06-08T04:49:48.900Z,41.50
2019-06-08T04:50:49.808Z,38.60
2019-06-08T04:51:49.540Z,38.80
2019-06-08T04:52:49.990Z,38.80
2019-06-08T04:53:49.486Z,40.10
2019-06-08T04:54:49.839Z,39.60
2019-06-08T04:55:49.354Z,39.70
2019-06-08T04:56:49.367Z,40.40
2019-06-08T04:57:50.813Z,41.50
2019-06-08T04:58:51.065Z,40.40
2019-06-08T04:59:50.427Z,40.30
2019-06-08T05:00:50.858Z,39.60
2019-06-08T05:01:49.215Z,37.20
2019-06-08T05:02:51.184Z,35.80
2019-06-08T05:03:49.800Z,39.10
2019-06-08T05:04:49.515Z,39.20
2019-06-08T05:05:50.018Z,39.20
2019-06-08T05:06:49.680Z,40.90
2019-06-08T05:07:50.328Z,40.20
2019-06-08T05:08:49.681Z,40.80
2019-06-08T05:09:49.606Z,41.80
2019-06-08T05:10:49.800Z,42.20
2019-06-08T05:11:49.884Z,43.40
2019-06-08T05:12:50.330Z,42.60
2019-06-08T05:13:49.882Z,41.80
2019-06-08T05:14:49.594Z,42.40
2019-06-08T05:15:50.218Z,41.50
2019-06-08T05:16:49.905Z,41.70
2019-06-08T05:17:49.859Z,41.60
2019-06-08T05:18:49.897Z,42.80
2019-06-08T05:19:50.521Z,42.00
2019-06-08T05:20:51.361Z,42.60
2019-06-08T05:21:50.063Z,42.00
2019-06-08T05:22:49.955Z,41.00
2019-06-08T05:23:58.181Z,42.60
2019-06-08T05:24:50.214Z,41.80
2019-06-08T05:25:50.002Z,41.90
2019-06-08T05:26:50.054Z,41.30
2019-06-08T05:27:50.096Z,41.90
2019-06-08T05:28:50.119Z,43.20
2019-06-08T05:29:50.245Z,40.00
2019-06-08T05:30:50.188Z,41.40
2019-06-08T05:31:50.254Z,41.30
2019-06-08T05:32:50.292Z,41.10
2019-06-08T05:33:50.322Z,40.60
2019-06-08T05:34:50.374Z,41.80
2019-06-08T05:35:50.425Z,41.00
2019-06-08T05:36:50.491Z,41.00
2019-06-08T05:37:50.485Z,42.00
2019-06-08T05:38:50.527Z,40.40
2019-06-08T05:39:50.558Z,40.70
2019-06-08T05:40:50.597Z,40.90
2019-06-08T05:41:50.653Z,41.30
2019-06-08T05:42:50.685Z,39.90
2019-06-08T05:43:50.738Z,41.30
2019-06-08T05:44:50.753Z,41.70
2019-06-08T05:45:50.849Z,42.80
2019-06-08T05:46:50.898Z,43.50
2019-06-08T05:47:50.891Z,41.60
2019-06-08T05:48:50.952Z,43.80
2019-06-08T05:49:50.979Z,39.60
2019-06-08T05:51:03.194Z,39.10
2019-06-08T05:51:51.078Z,39.00
2019-06-08T05:52:51.104Z,39.70
2019-06-08T05:53:51.139Z,38.70
2019-06-08T05:54:51.186Z,38.90
2019-06-08T05:55:51.253Z,36.60
2019-06-08T05:56:51.294Z,38.40
2019-06-08T05:57:51.343Z,37.00
2019-06-08T05:58:51.407Z,36.70
2019-06-08T05:59:51.391Z,36.70
2019-06-08T06:00:51.479Z,38.40
2019-06-08T06:01:51.457Z,39.40
2019-06-08T06:02:51.508Z,40.70
2019-06-08T06:03:51.952Z,39.40
2019-06-08T06:04:53.765Z,38.80
2019-06-08T06:05:51.632Z,36.60
2019-06-08T06:06:51.677Z,35.80
2019-06-08T06:07:51.732Z,34.90
2019-06-08T06:08:51.742Z,31.70
2019-06-08T06:09:51.812Z,32.30
2019-06-08T06:10:51.830Z,31.40
2019-06-08T06:11:51.865Z,31.60
2019-06-08T06:12:51.894Z,33.20
2019-06-08T06:13:51.977Z,33.10
2019-06-08T06:14:51.976Z,31.80
2019-06-08T06:15:52.038Z,31.00
2019-06-08T06:16:52.066Z,30.60
2019-06-08T06:17:52.126Z,32.00
2019-06-08T06:18:52.442Z,31.00
2019-06-08T06:19:52.205Z,29.10
2019-06-08T06:20:52.232Z,29.80
2019-06-08T06:21:52.284Z,28.50
2019-06-08T06:22:52.688Z,28.40
2019-06-08T06:23:52.369Z,28.20
2019-06-08T06:24:52.389Z,28.30
2019-06-08T06:25:52.439Z,29.50
2019-06-08T06:26:52.534Z,28.70
2019-06-08T06:27:52.509Z,29.80
2019-06-08T06:28:52.546Z,29.70
2019-06-08T06:29:52.596Z,28.10
2019-06-08T06:30:52.650Z,28.30
2019-06-08T06:31:52.686Z,28.80
2019-06-08T06:32:52.728Z,27.20
2019-06-08T06:33:52.754Z,27.80
2019-06-08T06:34:52.811Z,26.60
2019-06-08T06:35:52.824Z,28.70
2019-06-08T06:36:52.885Z,27.80
2019-06-08T06:37:52.917Z,27.70
2019-06-08T06:38:52.964Z,27.40
2019-06-08T06:39:52.995Z,27.60
2019-06-08T06:40:53.022Z,28.00
2019-06-08T06:41:53.119Z,29.00
2019-06-08T06:42:53.120Z,28.40
2019-06-08T06:43:53.164Z,29.50
2019-06-08T06:44:53.209Z,29.60
2019-06-08T06:45:53.233Z,30.10
2019-06-08T06:46:53.259Z,30.40
2019-06-08T06:47:53.313Z,29.70
2019-06-08T06:48:53.404Z,29.90
2019-06-08T06:49:53.452Z,30.50
2019-06-08T06:50:53.476Z,29.10
2019-06-08T06:51:53.484Z,30.30
2019-06-08T06:52:53.526Z,29.80
2019-06-08T06:53:53.598Z,29.40
2019-06-08T06:54:53.602Z,29.10
2019-06-08T06:55:53.633Z,30.00
2019-06-08T06:56:54.106Z,30.30
2019-06-08T06:57:53.729Z,30.20
2019-06-08T06:58:53.868Z,30.90
2019-06-08T06:59:54.194Z,31.40
2019-06-08T07:00:53.887Z,29.30
2019-06-08T07:01:57.347Z,29.90
2019-06-08T07:02:54.008Z,28.80
2019-06-08T07:03:54.364Z,31.30
2019-06-08T07:04:54.396Z,30.70
2019-06-08T07:05:54.354Z,29.50
2019-06-08T07:06:54.463Z,27.40
2019-06-08T07:07:54.498Z,26.30
2019-06-08T07:08:54.599Z,26.50
2019-06-08T07:09:55.009Z,26.80
2019-06-08T07:10:55.190Z,26.20
2019-06-08T07:11:56.260Z,29.70
2019-06-08T07:12:54.857Z,30.90
2019-06-08T07:13:55.179Z,30.10
2019-06-08T07:14:55.443Z,29.90
2019-06-08T07:15:57.805Z,29.70
2019-06-08T07:16:54.485Z,31.80
2019-06-08T07:17:54.978Z,31.00
2019-06-08T07:18:54.740Z,31.60
2019-06-08T07:19:54.751Z,30.20
2019-06-08T07:20:54.637Z,27.80
2019-06-08T07:21:54.872Z,28.10
2019-06-08T07:22:54.719Z,29.20
2019-06-08T07:23:56.224Z,28.80
2019-06-08T07:24:54.791Z,28.40
2019-06-08T07:25:54.834Z,29.10
2019-06-08T07:26:54.874Z,28.40
2019-06-08T07:27:55.220Z,29.80
2019-06-08T07:28:55.383Z,31.80
2019-06-08T07:29:55.016Z,29.60
2019-06-08T07:30:55.033Z,29.50
2019-06-08T07:31:55.446Z,32.40
2019-06-08T07:32:55.215Z,31.50
2019-06-08T07:33:55.662Z,28.40
2019-06-08T07:34:55.451Z,30.20
2019-06-08T07:35:55.418Z,28.80
2019-06-08T07:36:55.570Z,28.40
2019-06-08T07:37:55.581Z,29.10
2019-06-08T07:38:55.533Z,28.80
2019-06-08T07:39:56.125Z,28.40
2019-06-08T07:40:58.594Z,28.00
2019-06-08T07:41:55.979Z,29.30
2019-06-08T07:42:56.704Z,29.60
2019-06-08T07:43:56.576Z,28.40
2019-06-08T07:44:55.647Z,27.70
2019-06-08T07:45:56.279Z,26.10
2019-06-08T07:46:55.906Z,25.00
2019-06-08T07:47:56.088Z,25.30
2019-06-08T07:48:56.523Z,27.90
2019-06-08T07:49:55.807Z,24.20
2019-06-08T07:50:56.416Z,26.40
2019-06-08T07:52:06.702Z,24.50
2019-06-08T07:52:56.653Z,24.10
2019-06-08T07:53:55.963Z,24.70
2019-06-08T07:54:56.683Z,24.90
2019-06-08T07:55:56.304Z,24.70
2019-06-08T07:56:57.079Z,24.40
2019-06-08T07:57:56.333Z,26.10
2019-06-08T07:58:57.159Z,27.20
2019-06-08T07:59:56.480Z,27.40
2019-06-08T08:01:02.612Z,27.60
2019-06-08T08:01:56.287Z,29.70
2019-06-08T08:02:56.380Z,28.70
2019-06-08T08:03:56.423Z,29.70
2019-06-08T08:04:56.749Z,29.80
2019-06-08T08:05:56.787Z,27.40
2019-06-08T08:06:56.808Z,28.30
2019-06-08T08:07:56.869Z,29.10
2019-06-08T08:08:56.926Z,29.10
2019-06-08T08:09:57.066Z,27.90
2019-06-08T08:10:56.805Z,28.40
2019-06-08T08:11:57.193Z,28.80
2019-06-08T08:12:56.878Z,29.20
2019-06-08T08:13:57.422Z,29.40
2019-06-08T08:14:58.019Z,30.70
2019-06-08T08:15:58.619Z,33.00
2019-06-08T08:16:57.264Z,32.30
2019-06-08T08:17:57.681Z,32.30
2019-06-08T08:18:57.586Z,32.70
2019-06-08T08:19:57.425Z,31.70
2019-06-08T08:20:59.206Z,32.40
2019-06-08T08:22:02.341Z,33.20
2019-06-08T08:23:03.400Z,33.80
2019-06-08T08:23:59.413Z,32.50
2019-06-08T08:25:02.657Z,33.20
2019-06-08T08:26:00.341Z,32.20
2019-06-08T08:27:01.599Z,34.70
2019-06-08T08:27:59.055Z,34.50
2019-06-08T08:29:01.331Z,33.10
2019-06-08T08:30:00.045Z,34.50
2019-06-08T08:30:59.990Z,34.10
2019-06-08T08:32:00.136Z,31.10
2019-06-08T08:33:01.754Z,31.00
2019-06-08T08:34:03.083Z,30.70
2019-06-08T08:34:59.239Z,30.60
2019-06-08T08:35:59.791Z,33.40
2019-06-08T08:37:01.334Z,33.80
2019-06-08T08:38:02.681Z,34.90
2019-06-08T08:39:00.570Z,35.90
2019-06-08T08:39:59.573Z,36.10
2019-06-08T08:41:06.225Z,35.70
2019-06-08T08:42:04.410Z,37.10
2019-06-08T08:42:58.693Z,32.70
2019-06-08T08:44:00.797Z,35.90
2019-06-08T08:45:02.709Z,35.30
2019-06-08T08:45:59.090Z,36.00
2019-06-08T08:47:00.560Z,37.40
2019-06-08T08:48:14.462Z,36.60
2019-06-08T08:49:06.013Z,38.50
2019-06-08T08:49:59.115Z,36.80
2019-06-08T08:51:00.812Z,37.80
2019-06-08T08:52:00.052Z,39.20
2019-06-08T08:53:00.356Z,36.60
2019-06-08T08:54:03.175Z,33.40
2019-06-08T08:55:00.379Z,35.80
2019-06-08T08:56:01.262Z,32.50
2019-06-08T08:57:03.424Z,34.70
2019-06-08T08:57:59.443Z,33.00
2019-06-08T08:59:00.950Z,35.00
2019-06-08T09:00:04.327Z,35.10
2019-06-08T09:01:01.540Z,35.00
2019-06-08T09:02:01.031Z,34.60
2019-06-08T09:03:17.153Z,35.40
2019-06-08T09:04:03.034Z,35.00
2019-06-08T09:05:01.990Z,35.10
2019-06-08T09:06:02.545Z,34.60
2019-06-08T09:07:05.612Z,36.60
2019-06-08T09:08:02.077Z,34.10
2019-06-08T09:09:01.707Z,35.60
2019-06-08T09:10:01.818Z,35.80
2019-06-08T09:11:01.989Z,36.00
2019-06-08T09:12:00.937Z,34.80
2019-06-08T09:13:02.967Z,35.00
2019-06-08T09:14:05.141Z,35.20
2019-06-08T09:15:01.884Z,35.70
2019-06-08T09:16:02.323Z,34.60
2019-06-08T09:17:01.506Z,29.40
2019-06-08T09:18:02.099Z,28.40
2019-06-08T09:19:02.474Z,30.70
2019-06-08T09:20:03.294Z,28.30
2019-06-08T09:21:02.347Z,29.30
2019-06-08T09:22:02.084Z,28.10
2019-06-08T09:23:08.714Z,28.30
2019-06-08T09:24:03.469Z,26.70
2019-06-08T09:25:03.197Z,27.80
2019-06-08T09:26:07.675Z,29.20
2019-06-08T09:27:02.388Z,27.90
2019-06-08T09:28:02.848Z,29.70
2019-06-08T09:29:03.081Z,28.00
2019-06-08T09:30:02.966Z,29.20
2019-06-08T09:31:02.295Z,31.70
2019-06-08T09:32:01.862Z,33.60
2019-06-08T09:33:01.944Z,31.20
2019-06-08T09:34:09.358Z,30.40
2019-06-08T09:35:02.790Z,30.20
2019-06-08T09:36:02.795Z,30.70
2019-06-08T09:37:02.755Z,29.90
2019-06-08T09:38:03.106Z,30.50
2019-06-08T09:39:03.018Z,29.80
2019-06-08T09:40:02.175Z,28.40
2019-06-08T09:41:03.401Z,27.80
2019-06-08T09:42:02.971Z,26.60
2019-06-08T09:43:06.320Z,26.40
2019-06-08T09:44:03.637Z,26.30
2019-06-08T09:45:03.617Z,28.60
2019-06-08T09:46:02.160Z,29.60
2019-06-08T09:47:06.566Z,26.70
2019-06-08T09:48:03.852Z,29.10
2019-06-08T09:49:07.669Z,28.00
2019-06-08T09:50:03.594Z,25.80
2019-06-08T09:51:03.976Z,26.40
2019-06-08T09:52:03.231Z,26.50
2019-06-08T09:53:14.964Z,27.70
2019-06-08T09:54:04.106Z,26.80
2019-06-08T09:55:03.960Z,27.90
2019-06-08T09:56:04.300Z,27.00
2019-06-08T09:57:03.561Z,26.00
2019-06-08T09:58:05.035Z,24.60
2019-06-08T09:59:04.044Z,24.70
2019-06-08T10:00:05.169Z,25.40
2019-06-08T10:01:03.666Z,24.70
2019-06-08T10:02:07.494Z,24.40
2019-06-08T10:03:04.374Z,24.40
2019-06-08T10:04:02.795Z,23.20
2019-06-08T10:05:04.016Z,23.40
2019-06-08T10:06:05.521Z,24.60
2019-06-08T10:07:02.644Z,24.30
2019-06-08T10:08:02.833Z,24.00
2019-06-08T10:09:02.786Z,23.80
2019-06-08T10:10:03.088Z,23.30
2019-06-08T10:11:04.322Z,24.30
2019-06-08T10:12:04.441Z,25.60
2019-06-08T10:13:04.618Z,26.10
2019-06-08T10:14:04.734Z,26.10
2019-06-08T10:15:02.847Z,25.80
2019-06-08T10:16:03.601Z,25.40
2019-06-08T10:17:03.594Z,24.60
2019-06-08T10:18:03.189Z,25.00
2019-06-08T10:19:03.855Z,25.70
2019-06-08T10:20:03.309Z,25.70
2019-06-08T10:21:03.462Z,26.30
2019-06-08T10:22:03.011Z,29.00
2019-06-08T10:23:05.119Z,29.60
2019-06-08T10:24:04.712Z,30.10
2019-06-08T10:25:07.989Z,27.50
2019-06-08T10:26:03.597Z,26.40
2019-06-08T10:27:03.454Z,29.30
2019-06-08T10:28:09.833Z,28.80
2019-06-08T10:29:05.130Z,29.80
2019-06-08T10:30:04.259Z,29.20
2019-06-08T10:31:03.685Z,29.10
2019-06-08T10:32:03.673Z,28.50
2019-06-08T10:33:04.708Z,28.00
2019-06-08T10:34:03.850Z,26.60
2019-06-08T10:35:04.283Z,27.70
2019-06-08T10:36:05.236Z,27.50
2019-06-08T10:37:06.776Z,28.30
2019-06-08T10:38:06.487Z,27.40
2019-06-08T10:39:03.926Z,26.70
2019-06-08T10:40:05.405Z,26.90
2019-06-08T10:41:11.935Z,26.80
2019-06-08T10:42:03.566Z,26.60
2019-06-08T10:43:03.435Z,26.20
2019-06-08T10:44:03.480Z,26.30
2019-06-08T10:45:07.660Z,25.10
2019-06-08T10:46:10.222Z,26.00
2019-06-08T10:47:04.867Z,24.70
2019-06-08T10:48:04.161Z,23.30
2019-06-08T10:49:04.167Z,24.30
2019-06-08T10:50:07.546Z,24.70
2019-06-08T10:51:05.234Z,24.30
2019-06-08T10:52:04.474Z,25.40
2019-06-08T10:53:05.858Z,25.90
2019-06-08T10:54:04.301Z,24.60
2019-06-08T10:55:04.972Z,23.50
2019-06-08T10:56:05.203Z,23.30
2019-06-08T10:57:05.708Z,23.20
2019-06-08T10:58:04.502Z,23.90
2019-06-08T10:59:05.124Z,24.10
2019-06-08T11:00:13.629Z,24.40
2019-06-08T11:01:05.702Z,23.80
2019-06-08T11:02:06.258Z,24.10
2019-06-08T11:03:05.370Z,24.30
2019-06-08T11:04:05.273Z,24.10
2019-06-08T11:05:09.095Z,23.00
2019-06-08T11:06:05.759Z,24.20
2019-06-08T11:07:08.294Z,23.30
2019-06-08T11:08:04.540Z,23.80
2019-06-08T11:09:07.497Z,23.60
2019-06-08T11:10:05.655Z,23.90
2019-06-08T11:11:05.029Z,24.20
2019-06-08T11:12:05.216Z,22.50
2019-06-08T11:13:06.838Z,20.60
2019-06-08T11:14:05.686Z,20.80
2019-06-08T11:15:05.056Z,21.30
2019-06-08T11:16:05.957Z,20.50
2019-06-08T11:17:05.000Z,20.20
2019-06-08T11:18:06.944Z,19.60
2019-06-08T11:19:04.946Z,19.70
2019-06-08T11:20:04.774Z,19.40
2019-06-08T11:21:05.967Z,19.30
2019-06-08T11:22:07.688Z,19.80
2019-06-08T11:23:05.638Z,19.50
2019-06-08T11:24:13.313Z,19.70
2019-06-08T11:25:08.230Z,19.40
2019-06-08T11:26:11.141Z,18.10
2019-06-08T11:27:05.683Z,18.50
2019-06-08T11:28:07.943Z,17.70
2019-06-08T11:29:05.042Z,21.50
2019-06-08T11:30:12.685Z,25.10
2019-06-08T11:31:05.975Z,18.90
2019-06-08T11:32:06.522Z,20.50
2019-06-08T11:33:06.149Z,18.40
2019-06-08T11:34:06.183Z,18.20
2019-06-08T11:35:06.465Z,17.50
2019-06-08T11:36:10.063Z,18.60
2019-06-08T11:37:06.651Z,17.80
2019-06-08T11:38:06.729Z,18.10
2019-06-08T11:39:06.113Z,17.10
2019-06-08T11:40:07.154Z,17.50
2019-06-08T11:41:07.777Z,16.70
2019-06-08T11:42:08.731Z,16.30
2019-06-08T11:43:06.377Z,16.30
2019-06-08T11:44:07.120Z,16.30
2019-06-08T11:45:07.166Z,16.20
2019-06-08T11:46:06.633Z,16.20
2019-06-08T11:47:07.360Z,17.30
2019-06-08T11:48:06.457Z,18.20
2019-06-08T11:49:08.241Z,18.10
2019-06-08T11:50:07.273Z,18.40
2019-06-08T11:51:07.327Z,18.80
2019-06-08T11:52:06.873Z,18.20
2019-06-08T11:53:07.790Z,18.30
2019-06-08T11:54:19.234Z,18.20
2019-06-08T11:55:07.454Z,18.30
2019-06-08T11:56:09.033Z,18.30
2019-06-08T11:57:08.413Z,19.10
2019-06-08T11:58:07.551Z,18.30
2019-06-08T11:59:07.202Z,18.90
2019-06-08T12:00:15.113Z,18.90
2019-06-08T12:01:09.945Z,18.30
2019-06-08T12:02:09.026Z,18.00
2019-06-08T12:03:08.422Z,18.10
2019-06-08T12:04:06.210Z,18.40
2019-06-08T12:05:08.689Z,17.90
2019-06-08T12:06:10.413Z,17.70
2019-06-08T12:07:07.075Z,17.50
2019-06-08T12:08:06.437Z,17.90
2019-06-08T12:09:09.082Z,17.40
2019-06-08T12:10:09.092Z,16.30
2019-06-08T12:11:11.560Z,15.70
2019-06-08T12:12:09.239Z,17.20
2019-06-08T12:13:08.847Z,16.00
2019-06-08T12:14:09.292Z,16.10
2019-06-08T12:15:10.040Z,15.60
2019-06-08T12:16:11.656Z,15.50
2019-06-08T12:17:11.798Z,14.30
2019-06-08T12:18:09.181Z,14.30
2019-06-08T12:19:13.226Z,14.40
2019-06-08T12:20:08.568Z,13.70
2019-06-08T12:21:08.690Z,13.80
2019-06-08T12:22:08.733Z,13.20
2019-06-08T12:23:07.921Z,12.80
2019-06-08T12:24:08.301Z,13.80
2019-06-08T12:25:08.175Z,13.30
2019-06-08T12:26:08.197Z,13.20
2019-06-08T12:27:15.371Z,11.80
2019-06-08T12:28:08.443Z,11.20
2019-06-08T12:29:09.948Z,11.00
2019-06-08T12:30:13.312Z,11.30
2019-06-08T12:31:13.215Z,11.80
2019-06-08T12:32:09.393Z,11.50
2019-06-08T12:33:09.809Z,11.00
2019-06-08T12:34:07.696Z,11.10
2019-06-08T12:35:09.336Z,11.60
2019-06-08T12:36:09.144Z,11.10
2019-06-08T12:37:12.581Z,11.10
2019-06-08T12:38:09.593Z,11.00
2019-06-08T12:39:08.078Z,10.60
2019-06-08T12:40:11.394Z,10.20
2019-06-08T12:41:09.624Z,10.70
2019-06-08T12:42:14.669Z,10.40
2019-06-08T12:43:10.058Z,10.60
2019-06-08T12:44:10.386Z,10.70
2019-06-08T12:45:09.339Z,10.20
2019-06-08T12:46:10.948Z,10.70
2019-06-08T12:47:13.319Z,10.50
2019-06-08T12:48:14.205Z,10.30
2019-06-08T12:49:10.965Z,9.90
2019-06-08T12:50:11.720Z,9.30
2019-06-08T12:51:10.574Z,9.70
2019-06-08T12:52:10.108Z,9.50
2019-06-08T12:53:14.473Z,9.20